sensor_id;sensor_type;location;lat;lon;timestamp;pressure;altitude;pressure_sealevel;temperature;humidity
70781;BME280;59514;48.810;2.134;2023-05-16T00:00:06;100716.09;;;8.24;100.00
70781;BME280;59514;48.810;2.134;2023-05-16T00:02:36;100718.78;;;8.24;100.00
70781;BME280;59514;48.810;2.134;2023-05-16T00:05:04;100716.91;;;8.18;100.00
70781;BME280;59514;48.810;2.134;2023-05-16T00:07:30;100724.09;;;8.11;100.00
70781;BME280;59514;48.810;2.134;2023-05-16T00:09:55;100733.75;;;8.12;100.00
70781;BME280;59514;48.810;2.134;2023-05-16T00:12:21;100723.03;;;8.05;100.00
70781;BME280;59514;48.810;2.134;2023-05-16T00:14:47;100720.34;;;7.99;100.00
70781;BME280;59514;48.810;2.134;2023-05-16T00:17:12;100730.78;;;7.94;100.00
70781;BME280;59514;48.810;2.134;2023-05-16T00:19:38;100722.75;;;7.94;100.00
70781;BME280;59514;48.810;2.134;2023-05-16T00:22:04;100723.19;;;7.91;100.00
70781;BME280;59514;48.810;2.134;2023-05-16T00:24:30;100729.13;;;7.86;100.00
70781;BME280;59514;48.810;2.134;2023-05-16T00:26:56;100728.28;;;7.85;100.00
70781;BME280;59514;48.810;2.134;2023-05-16T00:29:21;100724.81;;;7.85;100.00
70781;BME280;59514;48.810;2.134;2023-05-16T00:31:48;100727.03;;;7.81;100.00
70781;BME280;59514;48.810;2.134;2023-05-16T00:34:14;100729.06;;;7.79;100.00
70781;BME280;59514;48.810;2.134;2023-05-16T00:36:39;100717.53;;;7.72;100.00
70781;BME280;59514;48.810;2.134;2023-05-16T00:39:04;100719.78;;;7.69;100.00
70781;BME280;59514;48.810;2.134;2023-05-16T00:41:30;100724.28;;;7.68;100.00
70781;BME280;59514;48.810;2.134;2023-05-16T00:43:55;100727.75;;;7.62;100.00
70781;BME280;59514;48.810;2.134;2023-05-16T00:46:21;100728.59;;;7.63;100.00
70781;BME280;59514;48.810;2.134;2023-05-16T00:48:46;100725.66;;;7.58;100.00
70781;BME280;59514;48.810;2.134;2023-05-16T00:51:12;100722.81;;;7.59;100.00
70781;BME280;59514;48.810;2.134;2023-05-16T00:53:37;100725.03;;;7.56;100.00
70781;BME280;59514;48.810;2.134;2023-05-16T00:56:04;100727.28;;;7.52;100.00
70781;BME280;59514;48.810;2.134;2023-05-16T00:58:30;100720.69;;;7.48;100.00
70781;BME280;59514;48.810;2.134;2023-05-16T01:00:58;100728.06;;;7.46;100.00
70781;BME280;59514;48.810;2.134;2023-05-16T01:03:23;100721.09;;;7.45;100.00
70781;BME280;59514;48.810;2.134;2023-05-16T01:05:49;100732.94;;;7.36;100.00
70781;BME280;59514;48.810;2.134;2023-05-16T01:08:14;100719.78;;;7.35;100.00
70781;BME280;59514;48.810;2.134;2023-05-16T01:10:57;100730.66;;;7.33;100.00
70781;BME280;59514;48.810;2.134;2023-05-16T01:13:30;100733.34;;;7.33;100.00
70781;BME280;59514;48.810;2.134;2023-05-16T01:16:03;100725.06;;;7.28;100.00
70781;BME280;59514;48.810;2.134;2023-05-16T01:18:56;100720.13;;;7.25;100.00
70781;BME280;59514;48.810;2.134;2023-05-16T01:21:48;100731.81;;;7.24;100.00
70781;BME280;59514;48.810;2.134;2023-05-16T01:24:22;100728.34;;;7.24;100.00
70781;BME280;59514;48.810;2.134;2023-05-16T01:26:51;100736.53;;;7.22;100.00
70781;BME280;59514;48.810;2.134;2023-05-16T01:29:17;100726.03;;;7.21;100.00
70781;BME280;59514;48.810;2.134;2023-05-16T01:31:43;100735.09;;;7.20;100.00
70781;BME280;59514;48.810;2.134;2023-05-16T01:34:08;100733.38;;;7.12;100.00
70781;BME280;59514;48.810;2.134;2023-05-16T01:36:42;100741.38;;;7.12;100.00
70781;BME280;59514;48.810;2.134;2023-05-16T01:42:12;100743.25;;;7.12;100.00
70781;BME280;59514;48.810;2.134;2023-05-16T01:44:47;100746.28;;;7.09;100.00
70781;BME280;59514;48.810;2.134;2023-05-16T01:47:16;100749.53;;;7.04;100.00
70781;BME280;59514;48.810;2.134;2023-05-16T01:49:50;100749.53;;;7.04;100.00
70781;BME280;59514;48.810;2.134;2023-05-16T01:52:31;100743.31;;;6.97;100.00
70781;BME280;59514;48.810;2.134;2023-05-16T01:54:59;100748.66;;;6.97;100.00
70781;BME280;59514;48.810;2.134;2023-05-16T01:57:27;100751.13;;;6.98;100.00
70781;BME280;59514;48.810;2.134;2023-05-16T01:59:53;100751.94;;;6.99;100.00
70781;BME280;59514;48.810;2.134;2023-05-16T02:02:19;100747.81;;;6.96;100.00
70781;BME280;59514;48.810;2.134;2023-05-16T02:04:44;100750.88;;;6.93;100.00
70781;BME280;59514;48.810;2.134;2023-05-16T02:07:11;100746.50;;;6.86;100.00
70781;BME280;59514;48.810;2.134;2023-05-16T02:09:36;100752.44;;;6.88;100.00
70781;BME280;59514;48.810;2.134;2023-05-16T02:12:01;100743.66;;;6.87;100.00
70781;BME280;59514;48.810;2.134;2023-05-16T02:14:27;100749.78;;;6.88;100.00
70781;BME280;59514;48.810;2.134;2023-05-16T02:16:52;100745.09;;;6.90;100.00
70781;BME280;59514;48.810;2.134;2023-05-16T02:19:17;100744.84;;;6.85;100.00
70781;BME280;59514;48.810;2.134;2023-05-16T02:21:43;100746.88;;;6.83;100.00
70781;BME280;59514;48.810;2.134;2023-05-16T02:24:08;100750.59;;;6.82;100.00
70781;BME280;59514;48.810;2.134;2023-05-16T02:26:33;100742.75;;;6.80;100.00
70781;BME280;59514;48.810;2.134;2023-05-16T02:28:59;100754.25;;;6.81;100.00
70781;BME280;59514;48.810;2.134;2023-05-16T02:31:31;100746.00;;;6.76;100.00
70781;BME280;59514;48.810;2.134;2023-05-16T02:33:57;100750.50;;;6.75;100.00
70781;BME280;59514;48.810;2.134;2023-05-16T02:36:23;100754.81;;;6.76;100.00
70781;BME280;59514;48.810;2.134;2023-05-16T02:38:48;100755.84;;;6.75;100.00
70781;BME280;59514;48.810;2.134;2023-05-16T02:41:14;100753.38;;;6.74;100.00
70781;BME280;59514;48.810;2.134;2023-05-16T02:43:39;100759.50;;;6.74;100.00
70781;BME280;59514;48.810;2.134;2023-05-16T02:46:19;100750.88;;;6.72;100.00
70781;BME280;59514;48.810;2.134;2023-05-16T02:48:45;100756.59;;;6.69;100.00
70781;BME280;59514;48.810;2.134;2023-05-16T02:51:10;100760.91;;;6.70;100.00
70781;BME280;59514;48.810;2.134;2023-05-16T02:53:35;100758.44;;;6.69;100.00
70781;BME280;59514;48.810;2.134;2023-05-16T02:56:01;100755.34;;;6.65;100.00
70781;BME280;59514;48.810;2.134;2023-05-16T02:58:26;100754.50;;;6.65;100.00
70781;BME280;59514;48.810;2.134;2023-05-16T03:00:51;100750.84;;;6.66;100.00
70781;BME280;59514;48.810;2.134;2023-05-16T03:03:17;100756.16;;;6.66;100.00
70781;BME280;59514;48.810;2.134;2023-05-16T03:05:42;100759.19;;;6.63;100.00
70781;BME280;59514;48.810;2.134;2023-05-16T03:08:07;100755.34;;;6.65;100.00
70781;BME280;59514;48.810;2.134;2023-05-16T03:10:33;100756.53;;;6.63;100.00
70781;BME280;59514;48.810;2.134;2023-05-16T03:12:58;100761.88;;;6.63;100.00
70781;BME280;59514;48.810;2.134;2023-05-16T03:15:23;100762.91;;;6.62;100.00
70781;BME280;59514;48.810;2.134;2023-05-16T03:17:49;100763.69;;;6.62;100.00
70781;BME280;59514;48.810;2.134;2023-05-16T03:20:14;100765.94;;;6.59;100.00
70781;BME280;59514;48.810;2.134;2023-05-16T03:22:39;100769.63;;;6.58;100.00
70781;BME280;59514;48.810;2.134;2023-05-16T03:25:05;100769.63;;;6.58;100.00
70781;BME280;59514;48.810;2.134;2023-05-16T03:27:30;100761.78;;;6.56;100.00
70781;BME280;59514;48.810;2.134;2023-05-16T03:29:56;100765.69;;;6.54;100.00
70781;BME280;59514;48.810;2.134;2023-05-16T03:32:21;100777.00;;;6.56;100.00
70781;BME280;59514;48.810;2.134;2023-05-16T03:34:46;100774.31;;;6.56;100.00
70781;BME280;59514;48.810;2.134;2023-05-16T03:37:12;100774.69;;;6.53;100.00
70781;BME280;59514;48.810;2.134;2023-05-16T03:39:40;100785.56;;;6.51;100.00
70781;BME280;59514;48.810;2.134;2023-05-16T03:42:05;100784.72;;;6.51;100.00
70781;BME280;59514;48.810;2.134;2023-05-16T03:44:31;100782.69;;;6.53;100.00
70781;BME280;59514;48.810;2.134;2023-05-16T03:46:57;100785.34;;;6.53;100.00
70781;BME280;59514;48.810;2.134;2023-05-16T03:49:25;100786.75;;;6.49;100.00
70781;BME280;59514;48.810;2.134;2023-05-16T03:51:52;100793.75;;;6.50;100.00
70781;BME280;59514;48.810;2.134;2023-05-16T03:54:17;100796.41;;;6.50;100.00
70781;BME280;59514;48.810;2.134;2023-05-16T03:56:43;100794.94;;;6.47;100.00
70781;BME280;59514;48.810;2.134;2023-05-16T03:59:08;100791.84;;;6.44;100.00
70781;BME280;59514;48.810;2.134;2023-05-16T04:01:33;100792.84;;;6.43;100.00
70781;BME280;59514;48.810;2.134;2023-05-16T04:03:59;100798.81;;;6.45;100.00
70781;BME280;59514;48.810;2.134;2023-05-16T04:06:24;100805.59;;;6.47;100.00
70781;BME280;59514;48.810;2.134;2023-05-16T04:08:49;100799.84;;;6.44;100.00
70781;BME280;59514;48.810;2.134;2023-05-16T04:11:15;100803.94;;;6.46;100.00
70781;BME280;59514;48.810;2.134;2023-05-16T04:13:40;100810.69;;;6.42;100.00
70781;BME280;59514;48.810;2.134;2023-05-16T04:16:06;100807.19;;;6.42;100.00
70781;BME280;59514;48.810;2.134;2023-05-16T04:18:31;100804.53;;;6.42;100.00
70781;BME280;59514;48.810;2.134;2023-05-16T04:20:57;100813.97;;;6.44;100.00
70781;BME280;59514;48.810;2.134;2023-05-16T04:23:22;100802.69;;;6.42;100.00
70781;BME280;59514;48.810;2.134;2023-05-16T04:25:47;100814.16;;;6.43;100.00
70781;BME280;59514;48.810;2.134;2023-05-16T04:28:13;100810.06;;;6.40;100.00
70781;BME280;59514;48.810;2.134;2023-05-16T04:30:38;100818.69;;;6.42;100.00
70781;BME280;59514;48.810;2.134;2023-05-16T04:33:03;100821.97;;;6.44;100.00
70781;BME280;59514;48.810;2.134;2023-05-16T04:35:29;100827.59;;;6.49;100.00
70781;BME280;59514;48.810;2.134;2023-05-16T04:37:54;100821.81;;;6.46;100.00
70781;BME280;59514;48.810;2.134;2023-05-16T04:40:20;100815.63;;;6.45;100.00
70781;BME280;59514;48.810;2.134;2023-05-16T04:42:45;100826.09;;;6.47;100.00
70781;BME280;59514;48.810;2.134;2023-05-16T04:45:11;100829.06;;;6.52;100.00
70781;BME280;59514;48.810;2.134;2023-05-16T04:47:38;100832.72;;;6.51;100.00
70781;BME280;59514;48.810;2.134;2023-05-16T04:50:04;100839.72;;;6.52;100.00
70781;BME280;59514;48.810;2.134;2023-05-16T04:52:30;100836.03;;;6.53;100.00
70781;BME280;59514;48.810;2.134;2023-05-16T04:54:55;100840.38;;;6.54;100.00
70781;BME280;59514;48.810;2.134;2023-05-16T04:57:21;100842.00;;;6.55;100.00
70781;BME280;59514;48.810;2.134;2023-05-16T04:59:46;100838.34;;;6.56;100.00
70781;BME280;59514;48.810;2.134;2023-05-16T05:02:11;100835.69;;;6.56;100.00
70781;BME280;59514;48.810;2.134;2023-05-16T05:04:36;100844.31;;;6.58;100.00
70781;BME280;59514;48.810;2.134;2023-05-16T05:07:02;100849.25;;;6.61;100.00
70781;BME280;59514;48.810;2.134;2023-05-16T05:09:27;100848.91;;;6.64;100.00
70781;BME280;59514;48.810;2.134;2023-05-16T05:11:53;100852.97;;;6.81;100.00
70781;BME280;59514;48.810;2.134;2023-05-16T05:14:18;100849.44;;;6.74;100.00
70781;BME280;59514;48.810;2.134;2023-05-16T05:16:43;100840.78;;;6.72;100.00
70781;BME280;59514;48.810;2.134;2023-05-16T05:19:09;100846.19;;;6.78;100.00
70781;BME280;59514;48.810;2.134;2023-05-16T05:21:34;100851.19;;;6.88;100.00
70781;BME280;59514;48.810;2.134;2023-05-16T05:23:59;100851.91;;;6.96;100.00
70781;BME280;59514;48.810;2.134;2023-05-16T05:26:25;100852.88;;;6.89;100.00
70781;BME280;59514;48.810;2.134;2023-05-16T05:28:50;100847.97;;;6.92;100.00
70781;BME280;59514;48.810;2.134;2023-05-16T05:31:16;100859.28;;;6.94;100.00
70781;BME280;59514;48.810;2.134;2023-05-16T05:33:41;100856.69;;;7.01;100.00
70781;BME280;59514;48.810;2.134;2023-05-16T05:36:06;100859.59;;;7.06;100.00
70781;BME280;59514;48.810;2.134;2023-05-16T05:38:32;100863.31;;;7.05;100.00
70781;BME280;59514;48.810;2.134;2023-05-16T05:40:57;100864.31;;;7.04;100.00
70781;BME280;59514;48.810;2.134;2023-05-16T05:43:22;100865.41;;;7.10;100.00
70781;BME280;59514;48.810;2.134;2023-05-16T05:45:48;100848.16;;;7.12;100.00
70781;BME280;59514;48.810;2.134;2023-05-16T05:48:13;100858.91;;;7.19;100.00
70781;BME280;59514;48.810;2.134;2023-05-16T05:50:39;100862.66;;;7.24;100.00
70781;BME280;59514;48.810;2.134;2023-05-16T05:53:04;100852.81;;;7.25;100.00
70781;BME280;59514;48.810;2.134;2023-05-16T05:55:30;100864.34;;;7.25;100.00
70781;BME280;59514;48.810;2.134;2023-05-16T05:57:55;100864.38;;;7.32;100.00
70781;BME280;59514;48.810;2.134;2023-05-16T06:00:20;100871.44;;;7.39;100.00
70781;BME280;59514;48.810;2.134;2023-05-16T06:02:47;100868.56;;;7.41;100.00
70781;BME280;59514;48.810;2.134;2023-05-16T06:05:12;100876.78;;;7.39;100.00
70781;BME280;59514;48.810;2.134;2023-05-16T06:07:38;100871.88;;;7.43;100.00
70781;BME280;59514;48.810;2.134;2023-05-16T06:10:03;100878.94;;;7.50;100.00
70781;BME280;59514;48.810;2.134;2023-05-16T06:12:29;100871.81;;;7.57;100.00
70781;BME280;59514;48.810;2.134;2023-05-16T06:14:55;100885.41;;;7.62;100.00
70781;BME280;59514;48.810;2.134;2023-05-16T06:17:20;100883.00;;;7.67;100.00
70781;BME280;59514;48.810;2.134;2023-05-16T06:19:45;100878.28;;;7.69;100.00
70781;BME280;59514;48.810;2.134;2023-05-16T06:22:11;100880.34;;;7.74;100.00
70781;BME280;59514;48.810;2.134;2023-05-16T06:24:36;100881.81;;;7.76;100.00
70781;BME280;59514;48.810;2.134;2023-05-16T06:27:01;100886.63;;;7.88;100.00
70781;BME280;59514;48.810;2.134;2023-05-16T06:29:27;100896.75;;;7.92;100.00
70781;BME280;59514;48.810;2.134;2023-05-16T06:31:52;100885.06;;;8.00;99.70
70781;BME280;59514;48.810;2.134;2023-05-16T06:34:17;100890.09;;;8.09;98.92
70781;BME280;59514;48.810;2.134;2023-05-16T06:36:43;100897.91;;;8.11;98.47
70781;BME280;59514;48.810;2.134;2023-05-16T06:39:08;100902.91;;;8.20;98.07
70781;BME280;59514;48.810;2.134;2023-05-16T06:41:34;100891.25;;;8.28;98.01
70781;BME280;59514;48.810;2.134;2023-05-16T06:44:00;100896.00;;;8.32;97.42
70781;BME280;59514;48.810;2.134;2023-05-16T06:46:25;100902.25;;;8.46;96.52
70781;BME280;59514;48.810;2.134;2023-05-16T06:48:51;100895.47;;;8.50;95.06
70781;BME280;59514;48.810;2.134;2023-05-16T06:51:16;100905.41;;;8.56;94.87
70781;BME280;59514;48.810;2.134;2023-05-16T06:53:41;100900.88;;;8.63;93.99
70781;BME280;59514;48.810;2.134;2023-05-16T06:56:06;100900.72;;;8.71;93.76
70781;BME280;59514;48.810;2.134;2023-05-16T06:58:32;100899.13;;;8.83;94.04
70781;BME280;59514;48.810;2.134;2023-05-16T07:00:57;100896.66;;;8.82;92.24
70781;BME280;59514;48.810;2.134;2023-05-16T07:03:22;100899.19;;;8.96;92.95
70781;BME280;59514;48.810;2.134;2023-05-16T07:05:48;100903.28;;;8.92;91.59
70781;BME280;59514;48.810;2.134;2023-05-16T07:08:15;100904.94;;;9.00;91.13
70781;BME280;59514;48.810;2.134;2023-05-16T07:10:40;100906.63;;;9.07;90.42
70781;BME280;59514;48.810;2.134;2023-05-16T07:13:05;100914.06;;;9.12;89.82
70781;BME280;59514;48.810;2.134;2023-05-16T07:15:31;100909.09;;;9.09;89.38
70781;BME280;59514;48.810;2.134;2023-05-16T07:17:56;100914.91;;;9.25;89.31
70781;BME280;59514;48.810;2.134;2023-05-16T07:20:22;100914.50;;;9.28;87.69
70781;BME280;59514;48.810;2.134;2023-05-16T07:22:47;100907.09;;;9.30;87.11
70781;BME280;59514;48.810;2.134;2023-05-16T07:25:12;100917.41;;;9.33;87.34
70781;BME280;59514;48.810;2.134;2023-05-16T07:27:40;100914.13;;;9.38;87.23
70781;BME280;59514;48.810;2.134;2023-05-16T07:30:10;100909.59;;;9.51;85.42
70781;BME280;59514;48.810;2.134;2023-05-16T07:32:35;100925.44;;;9.46;86.18
70781;BME280;59514;48.810;2.134;2023-05-16T07:35:02;100932.66;;;9.52;84.62
70781;BME280;59514;48.810;2.134;2023-05-16T07:37:27;100930.22;;;9.57;83.87
70781;BME280;59514;48.810;2.134;2023-05-16T07:39:52;100931.47;;;9.62;81.77
70781;BME280;59514;48.810;2.134;2023-05-16T07:42:18;100923.41;;;9.75;81.07
70781;BME280;59514;48.810;2.134;2023-05-16T07:44:43;100916.41;;;9.93;81.36
70781;BME280;59514;48.810;2.134;2023-05-16T07:47:09;100911.22;;;10.05;81.01
70781;BME280;59514;48.810;2.134;2023-05-16T07:49:34;100911.22;;;10.31;79.58
70781;BME280;59514;48.810;2.134;2023-05-16T07:52:00;100912.41;;;10.48;77.59
70781;BME280;59514;48.810;2.134;2023-05-16T07:54:25;100907.03;;;10.48;76.78
70781;BME280;59514;48.810;2.134;2023-05-16T07:56:50;100916.16;;;10.47;76.15
70781;BME280;59514;48.810;2.134;2023-05-16T07:59:16;100916.47;;;10.70;75.31
70781;BME280;59514;48.810;2.134;2023-05-16T08:01:41;100916.06;;;10.73;73.60
70781;BME280;59514;48.810;2.134;2023-05-16T08:04:06;100918.38;;;10.63;73.74
70781;BME280;59514;48.810;2.134;2023-05-16T08:06:32;100929.78;;;10.46;72.81
70781;BME280;59514;48.810;2.134;2023-05-16T08:08:58;100927.50;;;10.36;73.02
70781;BME280;59514;48.810;2.134;2023-05-16T08:11:23;100926.09;;;10.27;73.06
70781;BME280;59514;48.810;2.134;2023-05-16T08:13:49;100917.22;;;10.26;71.81
70781;BME280;59514;48.810;2.134;2023-05-16T08:16:15;100925.66;;;10.36;72.13
70781;BME280;59514;48.810;2.134;2023-05-16T08:18:40;100925.22;;;10.46;70.77
70781;BME280;59514;48.810;2.134;2023-05-16T08:21:06;100920.91;;;10.45;70.25
70781;BME280;59514;48.810;2.134;2023-05-16T08:23:33;100935.97;;;10.46;70.48
70781;BME280;59514;48.810;2.134;2023-05-16T08:25:58;100932.81;;;10.62;71.12
70781;BME280;59514;48.810;2.134;2023-05-16T08:28:24;100923.75;;;10.63;69.62
70781;BME280;59514;48.810;2.134;2023-05-16T08:30:49;100927.22;;;10.70;68.33
70781;BME280;59514;48.810;2.134;2023-05-16T08:33:15;100935.88;;;10.72;68.23
70781;BME280;59514;48.810;2.134;2023-05-16T08:35:44;100938.34;;;10.80;67.90
70781;BME280;59514;48.810;2.134;2023-05-16T08:38:09;100926.97;;;10.85;68.97
70781;BME280;59514;48.810;2.134;2023-05-16T08:40:35;100929.44;;;10.86;67.84
70781;BME280;59514;48.810;2.134;2023-05-16T08:43:00;100925.06;;;10.92;66.14
70781;BME280;59514;48.810;2.134;2023-05-16T08:45:26;100921.75;;;10.96;66.18
70781;BME280;59514;48.810;2.134;2023-05-16T08:47:54;100922.09;;;11.06;66.22
70781;BME280;59514;48.810;2.134;2023-05-16T08:50:21;100930.16;;;11.06;63.84
70781;BME280;59514;48.810;2.134;2023-05-16T08:52:50;100923.09;;;11.18;63.68
70781;BME280;59514;48.810;2.134;2023-05-16T08:55:18;100917.44;;;11.26;65.02
70781;BME280;59514;48.810;2.134;2023-05-16T08:57:44;100926.91;;;11.36;63.17
70781;BME280;59514;48.810;2.134;2023-05-16T09:00:10;100925.06;;;11.29;63.43
70781;BME280;59514;48.810;2.134;2023-05-16T09:02:41;100926.44;;;11.45;63.98
70781;BME280;59514;48.810;2.134;2023-05-16T09:05:08;100926.03;;;11.42;63.83
70781;BME280;59514;48.810;2.134;2023-05-16T09:07:35;100928.69;;;11.48;64.55
70781;BME280;59514;48.810;2.134;2023-05-16T09:10:00;100935.78;;;11.74;65.40
70781;BME280;59514;48.810;2.134;2023-05-16T09:12:25;100922.22;;;11.87;64.41
70781;BME280;59514;48.810;2.134;2023-05-16T09:14:50;100931.09;;;11.87;64.07
70781;BME280;59514;48.810;2.134;2023-05-16T09:17:16;100933.59;;;11.89;63.24
70781;BME280;59514;48.810;2.134;2023-05-16T09:19:42;100925.53;;;12.07;62.23
70781;BME280;59514;48.810;2.134;2023-05-16T09:22:10;100934.13;;;12.22;61.39
70781;BME280;59514;48.810;2.134;2023-05-16T09:24:40;100926.00;;;12.04;61.65
70781;BME280;59514;48.810;2.134;2023-05-16T09:27:10;100932.38;;;11.85;61.80
70781;BME280;59514;48.810;2.134;2023-05-16T09:29:36;100927.34;;;11.95;62.11
70781;BME280;59514;48.810;2.134;2023-05-16T09:32:09;100932.53;;;12.15;59.86
70781;BME280;59514;48.810;2.134;2023-05-16T09:34:42;100930.66;;;12.15;57.93
70781;BME280;59514;48.810;2.134;2023-05-16T09:37:09;100930.88;;;12.13;58.42
70781;BME280;59514;48.810;2.134;2023-05-16T09:39:35;100924.56;;;12.26;58.40
70781;BME280;59514;48.810;2.134;2023-05-16T09:42:00;100926.06;;;12.40;58.02
70781;BME280;59514;48.810;2.134;2023-05-16T09:44:26;100931.47;;;12.58;57.84
70781;BME280;59514;48.810;2.134;2023-05-16T09:46:53;100928.69;;;12.65;57.66
70781;BME280;59514;48.810;2.134;2023-05-16T09:49:18;100929.66;;;12.52;57.98
70781;BME280;59514;48.810;2.134;2023-05-16T09:51:44;100928.00;;;12.69;58.79
70781;BME280;59514;48.810;2.134;2023-05-16T09:54:10;100925.03;;;12.77;56.80
70781;BME280;59514;48.810;2.134;2023-05-16T09:56:48;100922.38;;;12.89;56.75
70781;BME280;59514;48.810;2.134;2023-05-16T09:59:14;100913.28;;;13.08;55.59
70781;BME280;59514;48.810;2.134;2023-05-16T10:01:40;100925.72;;;13.21;55.72
70781;BME280;59514;48.810;2.134;2023-05-16T10:04:06;100927.50;;;13.27;55.11
70781;BME280;59514;48.810;2.134;2023-05-16T10:06:34;100936.47;;;13.09;55.95
70781;BME280;59514;48.810;2.134;2023-05-16T10:09:02;100934.28;;;12.99;56.05
70781;BME280;59514;48.810;2.134;2023-05-16T10:11:28;100936.75;;;13.19;56.57
70781;BME280;59514;48.810;2.134;2023-05-16T10:13:54;100930.69;;;13.24;56.08
70781;BME280;59514;48.810;2.134;2023-05-16T10:16:21;100923.31;;;13.31;55.43
70781;BME280;59514;48.810;2.134;2023-05-16T10:18:47;100922.47;;;13.60;55.18
70781;BME280;59514;48.810;2.134;2023-05-16T10:21:14;100925.25;;;13.42;55.80
70781;BME280;59514;48.810;2.134;2023-05-16T10:23:42;100914.25;;;13.55;54.80
70781;BME280;59514;48.810;2.134;2023-05-16T10:26:08;100922.50;;;13.30;54.09
70781;BME280;59514;48.810;2.134;2023-05-16T10:28:35;100925.88;;;13.26;54.34
70781;BME280;59514;48.810;2.134;2023-05-16T10:31:00;100930.63;;;13.42;54.76
70781;BME280;59514;48.810;2.134;2023-05-16T10:33:27;100915.47;;;13.82;53.76
70781;BME280;59514;48.810;2.134;2023-05-16T10:35:52;100924.28;;;13.89;54.53
70781;BME280;59514;48.810;2.134;2023-05-16T10:38:20;100922.78;;;14.28;52.10
70781;BME280;59514;48.810;2.134;2023-05-16T10:40:46;100916.78;;;14.03;52.87
70781;BME280;59514;48.810;2.134;2023-05-16T10:43:22;100919.28;;;14.39;51.45
70781;BME280;59514;48.810;2.134;2023-05-16T10:45:53;100910.22;;;14.56;51.00
70781;BME280;59514;48.810;2.134;2023-05-16T10:48:27;100910.94;;;14.92;50.03
70781;BME280;59514;48.810;2.134;2023-05-16T10:50:53;100924.66;;;15.02;49.29
70781;BME280;59514;48.810;2.134;2023-05-16T10:53:30;100926.06;;;15.04;48.64
70781;BME280;59514;48.810;2.134;2023-05-16T11:01:19;100914.72;;;15.47;49.99
70781;BME280;59514;48.810;2.134;2023-05-16T11:04:11;100916.31;;;16.09;50.09
70781;BME280;59514;48.810;2.134;2023-05-16T11:14:19;100921.25;;;15.79;47.11
70781;BME280;59514;48.810;2.134;2023-05-16T11:16:53;100921.66;;;15.71;46.03
70781;BME280;59514;48.810;2.134;2023-05-16T11:19:29;100909.53;;;15.74;47.07
70781;BME280;59514;48.810;2.134;2023-05-16T11:22:05;100917.22;;;15.65;47.46
70781;BME280;59514;48.810;2.134;2023-05-16T11:24:31;100911.16;;;15.58;48.69
70781;BME280;59514;48.810;2.134;2023-05-16T11:27:01;100921.25;;;15.63;48.60
70781;BME280;59514;48.810;2.134;2023-05-16T11:29:28;100909.00;;;16.26;47.54
70781;BME280;59514;48.810;2.134;2023-05-16T11:31:57;100912.47;;;15.72;47.79
70781;BME280;59514;48.810;2.134;2023-05-16T11:34:24;100911.47;;;15.95;47.73
70781;BME280;59514;48.810;2.134;2023-05-16T11:36:49;100919.03;;;16.09;46.66
70781;BME280;59514;48.810;2.134;2023-05-16T11:39:15;100909.34;;;16.13;46.65
70781;BME280;59514;48.810;2.134;2023-05-16T11:41:40;100916.03;;;16.44;46.28
70781;BME280;59514;48.810;2.134;2023-05-16T11:44:05;100914.69;;;16.47;45.85
70781;BME280;59514;48.810;2.134;2023-05-16T11:46:32;100912.94;;;16.52;46.63
70781;BME280;59514;48.810;2.134;2023-05-16T11:48:58;100900.66;;;15.95;46.59
70781;BME280;59514;48.810;2.134;2023-05-16T11:51:23;100911.16;;;16.63;46.98
70781;BME280;59514;48.810;2.134;2023-05-16T11:53:49;100902.66;;;16.76;44.78
70781;BME280;59514;48.810;2.134;2023-05-16T11:56:15;100913.63;;;16.86;44.60
70781;BME280;59514;48.810;2.134;2023-05-16T11:58:41;100914.56;;;16.96;43.82
70781;BME280;59514;48.810;2.134;2023-05-16T12:01:06;100905.28;;;16.71;42.35
70781;BME280;59514;48.810;2.134;2023-05-16T12:03:33;100895.69;;;17.06;42.87
70781;BME280;59514;48.810;2.134;2023-05-16T12:06:00;100898.63;;;17.00;43.46
70781;BME280;59514;48.810;2.134;2023-05-16T12:08:26;100898.13;;;17.56;42.65
70781;BME280;59514;48.810;2.134;2023-05-16T12:10:52;100906.09;;;17.41;43.11
70781;BME280;59514;48.810;2.134;2023-05-16T12:13:19;100899.75;;;17.04;42.59
70781;BME280;59514;48.810;2.134;2023-05-16T12:15:45;100892.47;;;17.36;42.23
70781;BME280;59514;48.810;2.134;2023-05-16T12:18:11;100895.22;;;16.88;43.08
70781;BME280;59514;48.810;2.134;2023-05-16T12:20:37;100884.97;;;16.95;43.54
70781;BME280;59514;48.810;2.134;2023-05-16T12:23:02;100891.88;;;16.59;44.08
70781;BME280;59514;48.810;2.134;2023-05-16T12:25:32;100898.13;;;16.81;45.45
70781;BME280;59514;48.810;2.134;2023-05-16T12:28:01;100891.56;;;16.56;45.35
70781;BME280;59514;48.810;2.134;2023-05-16T12:30:28;100898.56;;;16.52;43.44
70781;BME280;59514;48.810;2.134;2023-05-16T12:35:20;100893.56;;;16.87;41.98
70781;BME280;59514;48.810;2.134;2023-05-16T12:37:46;100897.38;;;16.86;41.38
70781;BME280;59514;48.810;2.134;2023-05-16T12:40:13;100896.56;;;17.39;41.09
70781;BME280;59514;48.810;2.134;2023-05-16T12:42:39;100883.78;;;17.92;41.81
70781;BME280;59514;48.810;2.134;2023-05-16T12:45:04;100891.41;;;17.64;42.20
70781;BME280;59514;48.810;2.134;2023-05-16T12:47:39;100878.00;;;17.52;42.62
70781;BME280;59514;48.810;2.134;2023-05-16T12:50:14;100888.22;;;17.45;42.79
70781;BME280;59514;48.810;2.134;2023-05-16T12:52:51;100884.88;;;17.38;40.77
70781;BME280;59514;48.810;2.134;2023-05-16T12:55:18;100882.34;;;17.27;40.63
70781;BME280;59514;48.810;2.134;2023-05-16T12:57:45;100884.16;;;17.74;40.11
70781;BME280;59514;48.810;2.134;2023-05-16T13:00:12;100885.78;;;17.44;41.23
70781;BME280;59514;48.810;2.134;2023-05-16T13:02:38;100884.47;;;17.78;40.82
70781;BME280;59514;48.810;2.134;2023-05-16T13:05:04;100883.50;;;18.31;40.67